Airfield :
LOGIN :

Register | Disclaimer

   EN    FR    IT 

 










Legend :    VFR   Marginal VFR   IFR   Intensive IFR   Very Intensive IFR
Visi :
Ceiling :
>= 8 km
>= 3000ft
5 to 8 km
1000 to 3000 ft
1500m to 5 km
500 to 1000 ft
800 to 1500m
200 to 500 ft
< 800m
< 200 ft
Symbols :   Thunderstorms  Fog  Heavy snow  Heavy precipitations  Wind > 20 kt
SIGMETs :     Misc.  Thunderstorms  Icing  Turbulence  Mountain Waves  Volcanic Ashes






- Airport Elevation : 681 ft
- IATA code : LBA


EGNM - Leeds Bradford

CURRENT METAR :
  • 170450Z 36006KT 310V020 2000 RADZ BR OVC002 07/07 Q1008

EXPIRED METARs :
  • 170420Z 36005KT 320V050 2000 -RA BR OVC002 07/06 Q1008
  • 170350Z 34004KT 1800 -RA BR OVC001 06/06 Q1008
  • 170320Z 34004KT 0800 -DZ FG VV/// 06/06 Q1008
  • 170250Z 33004KT 3000 -DZ BR OVC002 06/06 Q1008
  • 170220Z 33004KT 4000 -DZ BR OVC002 06/06 Q1007

TAF AMD TAF EGNM
Valid from the 17 at 03:00 until the 18 at 00:00 UTC


170304Z 1703/1724 34007KT 9999 FEW007 BKN015
TEMPO 1703/1711 6000 -RA BKN007
PROB30
TEMPO 1703/1711 1400 RADZ BR BKN001
PROB30
TEMPO 1714/1721 BKN009
ATIS : +44 113 250 9696 (x2489)



MET'MAP, your aeronautical weather chart ! - Copyright ORBIFLY December 2007 - Disclaimer

ORBIFLY MET'MAP TEAM :

Programming & Development : Alexandra Zaïnal
Concept & Development : Baudouin d'Aumeries
Co-Development & Prog : Marc-Olivier Méhu
Technical & hardware support : Manuel Goepfert

Contact : metmap@orbifly.com




SOURCES & CREDITS :

   NOAA